Austin, TX

18:21 CDT le 03 août 2015 (GMT -0500)
Clarksville | | Change Station
CLOSE
Current Station
Stations météorologiques personnelles
Location: Austin, TX
Altitude: 571 ft
Stations météo à proximité

Alt. 571 ft 30.28 °N, 97.75 °W | Updated 1 second ago

Partiellement nuageux
Partiellement nuageux
97.5 ° F
Paraît 99 ° F
N
1.0
Vent Variable Vent de ESE
Gusts 2.0 mph

Aujourd'hui
Haut(e) -- | Bas -- ° F
--% Risque de précip.
Hier
Haut(e) -- | Bas -- ° F
Precip. -- pouce
6:50 AM 8:23 PM
Lune gibbeuse décroissante, 83% visible
Pression 29.82 pouce
Visibilité 10.0 Miles terrestres
Nuages Ciel dégagé
indice de chaleur 99 ° F
Point de rosée 63 ° F
Humidité 32%
Précipitations 0.00 pouce
Profondeur de la couche neigeuse Non disponible.
UV 3 sur 12
Pollen 7.70 sur 12
Qualité de l'air Non disponible.
Flu Activity Non disponible.
METAR KATT 032251Z AUTO VRB06KT 10SM CLR 36/16 A2987 RMK AO2 SLP097 T03610156

More Conditions Fewer Conditions

Pression 29.82 pouce
Visibilité 10.0 Miles terrestres
Nuages Ciel dégagé
indice de chaleur 99 ° F
Point de rosée 63 ° F
Humidité 32%
Précipitations 0.00 pouce
Profondeur de la couche neigeuse Non disponible.
UV 3 sur 12
Pollen 7.70 sur 12
Qualité de l'air Non disponible.
Flu Activity Non disponible.
METAR KATT 032251Z AUTO VRB06KT 10SM CLR 36/16 A2987 RMK AO2 SLP097 T03610156

More Conditions Fewer Conditions

10-Day Weather Forecast

×

Almanac

Astronomie

Aug. 03, 2015 Lever Coucher
Temps réel
Crépuscule civil
Crépuscule nautique
Crépuscule astronomique
Lune
Durée de lumière visible
Longueur du jour
Tomorrow will be .
, % of the Moon is Illuminated

Extrêmes aujourd'hui

State Highs State Lows

Community

WunderPhotos

Upload Photos

1,843,786 Photos téléchargées !

WunderBlogs® & News

Nearby

Qualité de l'air

  Qualité de l'air Indice de la qualité de l'air Polluant
Not available.

Épaisseur de neige

Station Depth Altitude

Activité sismique

Ville Distance Mag. Time & Date
Minimum magnitude displayed is 2.5.

Températures des eaux côtières

Lieu Température

Stations

Stations météo à proximité

Emplacement de la station Température Refroidissement éolien Point de rosée Humidité Vent Precip. Alt. Mise à jour Type